sensor_id;sensor_type;location;lat;lon;timestamp;pressure;altitude;pressure_sealevel;temperature;humidity
69306;BME280;56427;51.580;4.656;2022-10-31T00:00:12;102013.69;;;11.62;100.00
69306;BME280;56427;51.580;4.656;2022-10-31T00:02:38;102016.28;;;11.62;100.00
69306;BME280;56427;51.580;4.656;2022-10-31T00:05:04;102022.44;;;11.61;100.00
69306;BME280;56427;51.580;4.656;2022-10-31T00:07:29;102029.81;;;11.67;100.00
69306;BME280;56427;51.580;4.656;2022-10-31T00:09:54;102027.41;;;11.64;100.00
69306;BME280;56427;51.580;4.656;2022-10-31T00:12:19;102029.19;;;11.64;100.00
69306;BME280;56427;51.580;4.656;2022-10-31T00:14:45;102032.50;;;11.66;100.00
69306;BME280;56427;51.580;4.656;2022-10-31T00:17:10;102035.22;;;11.64;100.00
69306;BME280;56427;51.580;4.656;2022-10-31T00:19:35;102040.63;;;11.61;100.00
69306;BME280;56427;51.580;4.656;2022-10-31T00:22:01;102028.06;;;11.55;100.00
69306;BME280;56427;51.580;4.656;2022-10-31T00:24:26;102028.88;;;11.55;100.00
69306;BME280;56427;51.580;4.656;2022-10-31T00:26:51;102035.34;;;11.50;100.00
69306;BME280;56427;51.580;4.656;2022-10-31T00:29:17;102039.91;;;11.46;100.00
69306;BME280;56427;51.580;4.656;2022-10-31T00:31:42;102038.88;;;11.49;100.00
69306;BME280;56427;51.580;4.656;2022-10-31T00:34:07;102027.13;;;11.43;100.00
69306;BME280;56427;51.580;4.656;2022-10-31T00:36:32;102029.75;;;11.43;100.00
69306;BME280;56427;51.580;4.656;2022-10-31T00:38:58;102019.84;;;11.48;100.00
69306;BME280;56427;51.580;4.656;2022-10-31T00:41:23;102015.28;;;11.39;100.00
69306;BME280;56427;51.580;4.656;2022-10-31T00:43:49;102013.63;;;11.25;100.00
69306;BME280;56427;51.580;4.656;2022-10-31T00:46:14;102006.94;;;11.08;100.00
69306;BME280;56427;51.580;4.656;2022-10-31T00:48:40;102006.50;;;11.01;100.00
69306;BME280;56427;51.580;4.656;2022-10-31T00:51:05;102001.50;;;10.98;100.00
69306;BME280;56427;51.580;4.656;2022-10-31T00:53:31;102010.13;;;10.86;100.00
69306;BME280;56427;51.580;4.656;2022-10-31T00:55:56;102007.28;;;10.76;100.00
69306;BME280;56427;51.580;4.656;2022-10-31T00:58:21;102015.72;;;10.80;100.00
69306;BME280;56427;51.580;4.656;2022-10-31T01:00:48;102010.81;;;10.75;100.00
69306;BME280;56427;51.580;4.656;2022-10-31T01:03:20;102017.00;;;10.60;100.00
69306;BME280;56427;51.580;4.656;2022-10-31T01:05:45;102014.91;;;10.52;100.00
69306;BME280;56427;51.580;4.656;2022-10-31T01:08:10;102017.00;;;10.32;100.00
69306;BME280;56427;51.580;4.656;2022-10-31T01:10:36;102017.91;;;10.31;100.00
69306;BME280;56427;51.580;4.656;2022-10-31T01:13:01;102013.09;;;10.25;100.00
69306;BME280;56427;51.580;4.656;2022-10-31T01:15:26;102010.69;;;10.22;100.00
69306;BME280;56427;51.580;4.656;2022-10-31T01:17:51;102013.56;;;10.32;100.00
69306;BME280;56427;51.580;4.656;2022-10-31T01:20:17;102005.22;;;10.41;100.00
69306;BME280;56427;51.580;4.656;2022-10-31T01:22:42;102011.13;;;10.29;100.00
69306;BME280;56427;51.580;4.656;2022-10-31T01:25:11;102003.81;;;10.21;100.00
69306;BME280;56427;51.580;4.656;2022-10-31T01:27:37;102008.63;;;10.27;100.00
69306;BME280;56427;51.580;4.656;2022-10-31T01:30:03;102009.91;;;10.49;100.00
69306;BME280;56427;51.580;4.656;2022-10-31T01:32:28;102003.63;;;10.39;100.00
69306;BME280;56427;51.580;4.656;2022-10-31T01:34:54;102009.47;;;10.42;100.00
69306;BME280;56427;51.580;4.656;2022-10-31T01:37:19;102001.31;;;10.34;100.00
69306;BME280;56427;51.580;4.656;2022-10-31T01:39:45;102002.28;;;10.33;100.00
69306;BME280;56427;51.580;4.656;2022-10-31T01:42:17;102008.38;;;10.32;100.00
69306;BME280;56427;51.580;4.656;2022-10-31T01:47:14;102004.09;;;10.31;100.00
69306;BME280;56427;51.580;4.656;2022-10-31T01:52:14;101995.91;;;10.10;100.00
69306;BME280;56427;51.580;4.656;2022-10-31T01:54:48;101990.66;;;9.97;100.00
69306;BME280;56427;51.580;4.656;2022-10-31T01:57:17;101996.84;;;9.80;100.00
69306;BME280;56427;51.580;4.656;2022-10-31T01:59:47;101987.72;;;9.74;100.00
69306;BME280;56427;51.580;4.656;2022-10-31T02:02:15;101993.16;;;9.84;100.00
69306;BME280;56427;51.580;4.656;2022-10-31T02:04:42;101990.84;;;9.80;100.00
69306;BME280;56427;51.580;4.656;2022-10-31T02:07:17;101999.00;;;9.73;100.00
69306;BME280;56427;51.580;4.656;2022-10-31T02:09:47;101993.91;;;9.86;100.00
69306;BME280;56427;51.580;4.656;2022-10-31T02:12:14;101986.84;;;9.88;100.00
69306;BME280;56427;51.580;4.656;2022-10-31T02:14:40;101986.56;;;9.93;100.00
69306;BME280;56427;51.580;4.656;2022-10-31T02:17:06;101987.41;;;9.93;100.00
69306;BME280;56427;51.580;4.656;2022-10-31T02:25:57;101995.41;;;9.62;100.00
69306;BME280;56427;51.580;4.656;2022-10-31T02:33:55;101991.31;;;9.72;100.00
69306;BME280;56427;51.580;4.656;2022-10-31T02:36:34;101988.44;;;9.76;100.00
69306;BME280;56427;51.580;4.656;2022-10-31T02:39:20;101983.84;;;9.67;100.00
69306;BME280;56427;51.580;4.656;2022-10-31T02:44:30;101991.16;;;9.61;100.00
69306;BME280;56427;51.580;4.656;2022-10-31T02:47:05;101985.13;;;9.74;100.00
69306;BME280;56427;51.580;4.656;2022-10-31T02:49:36;101988.84;;;9.70;100.00
69306;BME280;56427;51.580;4.656;2022-10-31T02:52:34;101991.25;;;9.59;100.00
69306;BME280;56427;51.580;4.656;2022-10-31T02:54:58;101984.56;;;9.55;100.00
69306;BME280;56427;51.580;4.656;2022-10-31T02:57:34;101972.56;;;9.54;100.00
69306;BME280;56427;51.580;4.656;2022-10-31T03:00:05;101977.75;;;9.54;100.00
69306;BME280;56427;51.580;4.656;2022-10-31T03:05:48;101979.38;;;9.40;100.00
69306;BME280;56427;51.580;4.656;2022-10-31T03:08:34;101979.09;;;9.45;100.00
69306;BME280;56427;51.580;4.656;2022-10-31T03:11:03;101978.72;;;9.37;100.00
69306;BME280;56427;51.580;4.656;2022-10-31T03:13:35;101980.59;;;9.35;100.00
69306;BME280;56427;51.580;4.656;2022-10-31T03:16:27;101982.91;;;9.39;100.00
69306;BME280;56427;51.580;4.656;2022-10-31T03:19:04;101989.66;;;9.42;100.00
69306;BME280;56427;51.580;4.656;2022-10-31T03:24:01;101983.19;;;9.35;100.00
69306;BME280;56427;51.580;4.656;2022-10-31T03:26:29;101983.34;;;9.32;100.00
69306;BME280;56427;51.580;4.656;2022-10-31T03:29:02;101979.94;;;9.31;100.00
69306;BME280;56427;51.580;4.656;2022-10-31T03:31:33;101979.94;;;9.31;100.00
69306;BME280;56427;51.580;4.656;2022-10-31T03:34:00;101988.44;;;9.33;100.00
69306;BME280;56427;51.580;4.656;2022-10-31T03:36:30;101974.28;;;9.10;100.00
69306;BME280;56427;51.580;4.656;2022-10-31T03:39:01;101967.38;;;8.80;100.00
69306;BME280;56427;51.580;4.656;2022-10-31T03:41:30;101975.59;;;8.57;100.00
69306;BME280;56427;51.580;4.656;2022-10-31T03:44:06;101968.91;;;8.69;100.00
69306;BME280;56427;51.580;4.656;2022-10-31T03:46:33;101976.69;;;8.53;100.00
69306;BME280;56427;51.580;4.656;2022-10-31T03:48:59;101973.34;;;8.35;100.00
69306;BME280;56427;51.580;4.656;2022-10-31T03:51:36;101964.59;;;8.37;100.00
69306;BME280;56427;51.580;4.656;2022-10-31T03:54:06;101978.97;;;8.11;100.00
69306;BME280;56427;51.580;4.656;2022-10-31T03:56:49;101970.69;;;8.20;100.00
69306;BME280;56427;51.580;4.656;2022-10-31T03:59:30;101971.94;;;8.13;100.00
69306;BME280;56427;51.580;4.656;2022-10-31T04:02:00;101970.50;;;8.23;100.00
69306;BME280;56427;51.580;4.656;2022-10-31T04:04:28;101975.59;;;8.25;100.00
69306;BME280;56427;51.580;4.656;2022-10-31T04:06:56;101969.84;;;8.20;100.00
69306;BME280;56427;51.580;4.656;2022-10-31T04:09:25;101977.75;;;8.01;100.00
69306;BME280;56427;51.580;4.656;2022-10-31T04:11:53;101979.53;;;8.00;100.00
69306;BME280;56427;51.580;4.656;2022-10-31T04:14:20;101981.72;;;8.08;100.00
69306;BME280;56427;51.580;4.656;2022-10-31T04:16:47;101982.94;;;8.01;100.00
69306;BME280;56427;51.580;4.656;2022-10-31T04:19:12;101983.59;;;7.88;100.00
69306;BME280;56427;51.580;4.656;2022-10-31T04:21:38;101986.03;;;8.07;100.00
69306;BME280;56427;51.580;4.656;2022-10-31T04:24:03;101984.72;;;8.16;100.00
69306;BME280;56427;51.580;4.656;2022-10-31T04:26:29;101978.78;;;8.14;100.00
69306;BME280;56427;51.580;4.656;2022-10-31T04:28:54;101980.59;;;8.12;100.00
69306;BME280;56427;51.580;4.656;2022-10-31T04:31:19;101970.69;;;8.20;100.00
69306;BME280;56427;51.580;4.656;2022-10-31T04:33:45;101970.34;;;8.10;100.00
69306;BME280;56427;51.580;4.656;2022-10-31T04:36:11;101962.25;;;8.17;100.00
69306;BME280;56427;51.580;4.656;2022-10-31T04:38:36;101963.78;;;8.21;100.00
69306;BME280;56427;51.580;4.656;2022-10-31T04:41:01;101953.75;;;8.15;100.00
69306;BME280;56427;51.580;4.656;2022-10-31T04:43:26;101973.38;;;8.03;100.00
69306;BME280;56427;51.580;4.656;2022-10-31T04:45:52;101966.03;;;8.11;100.00
69306;BME280;56427;51.580;4.656;2022-10-31T04:48:20;101964.19;;;8.13;100.00
69306;BME280;56427;51.580;4.656;2022-10-31T04:50:45;101966.44;;;8.19;100.00
69306;BME280;56427;51.580;4.656;2022-10-31T04:53:10;101968.00;;;8.22;100.00
69306;BME280;56427;51.580;4.656;2022-10-31T04:55:36;101965.19;;;8.26;100.00
69306;BME280;56427;51.580;4.656;2022-10-31T04:58:02;101967.34;;;8.18;100.00
69306;BME280;56427;51.580;4.656;2022-10-31T05:00:27;101966.53;;;8.02;100.00
69306;BME280;56427;51.580;4.656;2022-10-31T05:02:55;101958.59;;;8.05;100.00
69306;BME280;56427;51.580;4.656;2022-10-31T05:05:24;101965.59;;;8.19;100.00
69306;BME280;56427;51.580;4.656;2022-10-31T05:07:50;101958.25;;;8.27;100.00
69306;BME280;56427;51.580;4.656;2022-10-31T05:10:19;101961.94;;;8.23;100.00
69306;BME280;56427;51.580;4.656;2022-10-31T05:12:49;101954.66;;;8.29;100.00
69306;BME280;56427;51.580;4.656;2022-10-31T05:15:15;101948.75;;;8.27;100.00
69306;BME280;56427;51.580;4.656;2022-10-31T05:17:41;101950.06;;;8.35;100.00
69306;BME280;56427;51.580;4.656;2022-10-31T05:20:06;101936.97;;;8.22;100.00
69306;BME280;56427;51.580;4.656;2022-10-31T05:22:32;101934.72;;;8.16;100.00
69306;BME280;56427;51.580;4.656;2022-10-31T05:24:59;101936.41;;;8.17;100.00
69306;BME280;56427;51.580;4.656;2022-10-31T05:27:24;101934.47;;;8.20;100.00
69306;BME280;56427;51.580;4.656;2022-10-31T05:29:50;101935.66;;;8.15;100.00
69306;BME280;56427;51.580;4.656;2022-10-31T05:32:15;101932.50;;;8.09;100.00
69306;BME280;56427;51.580;4.656;2022-10-31T05:34:40;101935.81;;;8.27;100.00
69306;BME280;56427;51.580;4.656;2022-10-31T05:37:05;101932.94;;;8.32;100.00
69306;BME280;56427;51.580;4.656;2022-10-31T05:39:31;101933.91;;;8.15;100.00
69306;BME280;56427;51.580;4.656;2022-10-31T05:41:56;101940.84;;;8.15;100.00
69306;BME280;56427;51.580;4.656;2022-10-31T05:44:21;101937.06;;;8.36;100.00
69306;BME280;56427;51.580;4.656;2022-10-31T05:46:47;101930.97;;;8.37;100.00
69306;BME280;56427;51.580;4.656;2022-10-31T05:49:12;101927.22;;;8.43;100.00
69306;BME280;56427;51.580;4.656;2022-10-31T05:51:37;101939.28;;;8.42;100.00
69306;BME280;56427;51.580;4.656;2022-10-31T05:54:03;101943.69;;;8.40;100.00
69306;BME280;56427;51.580;4.656;2022-10-31T05:56:28;101944.72;;;8.38;100.00
69306;BME280;56427;51.580;4.656;2022-10-31T05:58:54;101939.25;;;8.44;100.00
69306;BME280;56427;51.580;4.656;2022-10-31T06:01:19;101935.56;;;8.48;100.00
69306;BME280;56427;51.580;4.656;2022-10-31T06:03:44;101937.53;;;8.59;100.00
69306;BME280;56427;51.580;4.656;2022-10-31T06:06:10;101940.59;;;8.65;100.00
69306;BME280;56427;51.580;4.656;2022-10-31T06:08:36;101937.47;;;8.75;100.00
69306;BME280;56427;51.580;4.656;2022-10-31T06:11:01;101931.72;;;8.55;100.00
69306;BME280;56427;51.580;4.656;2022-10-31T06:13:27;101926.63;;;8.68;100.00
69306;BME280;56427;51.580;4.656;2022-10-31T06:15:52;101927.50;;;8.69;100.00
69306;BME280;56427;51.580;4.656;2022-10-31T06:18:17;101933.22;;;8.43;100.00
69306;BME280;56427;51.580;4.656;2022-10-31T06:20:42;101936.28;;;8.50;100.00
69306;BME280;56427;51.580;4.656;2022-10-31T06:23:08;101932.53;;;8.40;100.00
69306;BME280;56427;51.580;4.656;2022-10-31T06:25:33;101929.81;;;8.43;100.00
69306;BME280;56427;51.580;4.656;2022-10-31T06:27:59;101936.72;;;8.42;100.00
69306;BME280;56427;51.580;4.656;2022-10-31T06:30:25;101930.78;;;8.56;100.00
69306;BME280;56427;51.580;4.656;2022-10-31T06:32:50;101934.06;;;8.44;100.00
69306;BME280;56427;51.580;4.656;2022-10-31T06:35:16;101936.88;;;8.55;100.00
69306;BME280;56427;51.580;4.656;2022-10-31T06:37:41;101930.59;;;8.59;100.00
69306;BME280;56427;51.580;4.656;2022-10-31T06:40:07;101935.78;;;8.59;100.00
69306;BME280;56427;51.580;4.656;2022-10-31T06:42:32;101931.72;;;8.70;100.00
69306;BME280;56427;51.580;4.656;2022-10-31T06:44:57;101942.56;;;8.76;100.00
69306;BME280;56427;51.580;4.656;2022-10-31T06:47:23;101943.50;;;8.75;100.00
69306;BME280;56427;51.580;4.656;2022-10-31T06:49:48;101951.34;;;8.74;100.00
69306;BME280;56427;51.580;4.656;2022-10-31T06:52:13;101948.84;;;8.72;100.00
69306;BME280;56427;51.580;4.656;2022-10-31T06:54:38;101949.25;;;8.80;100.00
69306;BME280;56427;51.580;4.656;2022-10-31T06:57:04;101951.56;;;8.85;100.00
69306;BME280;56427;51.580;4.656;2022-10-31T06:59:29;101948.31;;;8.81;100.00
69306;BME280;56427;51.580;4.656;2022-10-31T07:01:54;101946.94;;;8.90;100.00
69306;BME280;56427;51.580;4.656;2022-10-31T07:04:19;101951.09;;;8.93;100.00
69306;BME280;56427;51.580;4.656;2022-10-31T07:06:45;101944.28;;;9.06;100.00
69306;BME280;56427;51.580;4.656;2022-10-31T07:09:10;101946.91;;;9.35;100.00
69306;BME280;56427;51.580;4.656;2022-10-31T07:11:35;101950.88;;;9.40;100.00
69306;BME280;56427;51.580;4.656;2022-10-31T07:14:01;101950.13;;;9.38;100.00
69306;BME280;56427;51.580;4.656;2022-10-31T07:16:26;101944.50;;;9.61;100.00
69306;BME280;56427;51.580;4.656;2022-10-31T07:18:51;101940.41;;;9.56;100.00
69306;BME280;56427;51.580;4.656;2022-10-31T07:21:17;101947.91;;;9.61;100.00
69306;BME280;56427;51.580;4.656;2022-10-31T07:23:42;101949.09;;;9.70;100.00
69306;BME280;56427;51.580;4.656;2022-10-31T07:26:09;101949.19;;;9.68;100.00
69306;BME280;56427;51.580;4.656;2022-10-31T07:28:34;101957.25;;;9.78;100.00
69306;BME280;56427;51.580;4.656;2022-10-31T07:30:59;101958.81;;;9.95;100.00
69306;BME280;56427;51.580;4.656;2022-10-31T07:33:25;101957.50;;;9.88;100.00
69306;BME280;56427;51.580;4.656;2022-10-31T07:35:53;101964.56;;;10.13;100.00
69306;BME280;56427;51.580;4.656;2022-10-31T07:38:19;101963.84;;;10.53;100.00
69306;BME280;56427;51.580;4.656;2022-10-31T07:40:49;101961.63;;;10.46;100.00
69306;BME280;56427;51.580;4.656;2022-10-31T07:43:18;101959.50;;;10.66;100.00
69306;BME280;56427;51.580;4.656;2022-10-31T07:45:49;101956.44;;;10.46;100.00
69306;BME280;56427;51.580;4.656;2022-10-31T07:48:14;101962.25;;;10.50;100.00
69306;BME280;56427;51.580;4.656;2022-10-31T07:50:39;101966.00;;;10.99;100.00
69306;BME280;56427;51.580;4.656;2022-10-31T07:53:10;101965.47;;;10.94;100.00
69306;BME280;56427;51.580;4.656;2022-10-31T07:55:36;101967.81;;;10.71;100.00
69306;BME280;56427;51.580;4.656;2022-10-31T07:58:07;101974.78;;;10.83;100.00
69306;BME280;56427;51.580;4.656;2022-10-31T08:00:34;101961.13;;;11.07;100.00
69306;BME280;56427;51.580;4.656;2022-10-31T08:03:03;101963.81;;;11.31;100.00
69306;BME280;56427;51.580;4.656;2022-10-31T08:05:29;101965.56;;;11.31;100.00
69306;BME280;56427;51.580;4.656;2022-10-31T08:07:55;101966.41;;;11.31;100.00
69306;BME280;56427;51.580;4.656;2022-10-31T08:10:21;101967.66;;;11.38;100.00
69306;BME280;56427;51.580;4.656;2022-10-31T08:12:47;101954.66;;;11.26;100.00
69306;BME280;56427;51.580;4.656;2022-10-31T08:15:19;101954.47;;;11.41;100.00
69306;BME280;56427;51.580;4.656;2022-10-31T08:17:44;101956.97;;;11.43;100.00
69306;BME280;56427;51.580;4.656;2022-10-31T08:20:10;101948.59;;;11.51;100.00
69306;BME280;56427;51.580;4.656;2022-10-31T08:22:35;101949.22;;;11.54;100.00
69306;BME280;56427;51.580;4.656;2022-10-31T08:25:01;101946.91;;;11.63;100.00
69306;BME280;56427;51.580;4.656;2022-10-31T08:27:27;101945.56;;;11.70;100.00
69306;BME280;56427;51.580;4.656;2022-10-31T08:29:52;101945.16;;;11.76;100.00
69306;BME280;56427;51.580;4.656;2022-10-31T08:32:17;101935.00;;;11.97;100.00
69306;BME280;56427;51.580;4.656;2022-10-31T08:34:42;101934.38;;;11.93;100.00
69306;BME280;56427;51.580;4.656;2022-10-31T08:37:08;101938.13;;;11.89;100.00
69306;BME280;56427;51.580;4.656;2022-10-31T08:39:33;101943.66;;;11.85;100.00
69306;BME280;56427;51.580;4.656;2022-10-31T08:41:58;101947.78;;;11.87;100.00
69306;BME280;56427;51.580;4.656;2022-10-31T08:44:24;101942.09;;;11.95;100.00
69306;BME280;56427;51.580;4.656;2022-10-31T08:46:49;101931.38;;;12.24;100.00
69306;BME280;56427;51.580;4.656;2022-10-31T08:49:14;101934.94;;;12.34;100.00
69306;BME280;56427;51.580;4.656;2022-10-31T08:51:39;101930.81;;;12.43;100.00
69306;BME280;56427;51.580;4.656;2022-10-31T08:54:05;101931.44;;;12.46;100.00
69306;BME280;56427;51.580;4.656;2022-10-31T08:56:30;101925.56;;;12.56;100.00
69306;BME280;56427;51.580;4.656;2022-10-31T08:58:55;101925.97;;;12.85;100.00
69306;BME280;56427;51.580;4.656;2022-10-31T09:01:21;101918.72;;;12.66;100.00
69306;BME280;56427;51.580;4.656;2022-10-31T09:03:46;101920.81;;;12.61;100.00
69306;BME280;56427;51.580;4.656;2022-10-31T09:06:11;101908.16;;;12.56;100.00
69306;BME280;56427;51.580;4.656;2022-10-31T09:08:37;101909.41;;;12.75;100.00
69306;BME280;56427;51.580;4.656;2022-10-31T09:11:03;101902.06;;;12.91;100.00
69306;BME280;56427;51.580;4.656;2022-10-31T09:13:28;101894.50;;;12.99;100.00
69306;BME280;56427;51.580;4.656;2022-10-31T09:15:56;101874.09;;;12.82;100.00
69306;BME280;56427;51.580;4.656;2022-10-31T09:18:23;101872.94;;;12.97;100.00
69306;BME280;56427;51.580;4.656;2022-10-31T09:20:49;101868.06;;;13.15;100.00
69306;BME280;56427;51.580;4.656;2022-10-31T09:25:42;101866.38;;;13.59;100.00
69306;BME280;56427;51.580;4.656;2022-10-31T09:28:11;101852.56;;;13.48;100.00
69306;BME280;56427;51.580;4.656;2022-10-31T09:30:37;101860.03;;;13.85;100.00
69306;BME280;56427;51.580;4.656;2022-10-31T09:33:09;101854.44;;;13.89;100.00
69306;BME280;56427;51.580;4.656;2022-10-31T09:35:35;101854.34;;;13.79;100.00
69306;BME280;56427;51.580;4.656;2022-10-31T09:38:03;101858.41;;;14.26;100.00
69306;BME280;56427;51.580;4.656;2022-10-31T09:40:40;101852.88;;;14.40;100.00
69306;BME280;56427;51.580;4.656;2022-10-31T09:46:18;101838.72;;;13.68;100.00
69306;BME280;56427;51.580;4.656;2022-10-31T09:52:00;101830.47;;;14.16;100.00
69306;BME280;56427;51.580;4.656;2022-10-31T09:54:45;101830.41;;;14.07;100.00
69306;BME280;56427;51.580;4.656;2022-10-31T09:57:15;101827.47;;;14.00;100.00
69306;BME280;56427;51.580;4.656;2022-10-31T09:59:41;101828.25;;;13.79;100.00
69306;BME280;56427;51.580;4.656;2022-10-31T10:02:25;101821.06;;;13.72;100.00
69306;BME280;56427;51.580;4.656;2022-10-31T10:05:04;101814.84;;;13.84;100.00
69306;BME280;56427;51.580;4.656;2022-10-31T10:07:55;101809.91;;;14.02;100.00
69306;BME280;56427;51.580;4.656;2022-10-31T10:13:10;101805.25;;;14.27;100.00
69306;BME280;56427;51.580;4.656;2022-10-31T10:18:45;101817.66;;;14.56;100.00
69306;BME280;56427;51.580;4.656;2022-10-31T10:21:37;101814.13;;;14.87;100.00
69306;BME280;56427;51.580;4.656;2022-10-31T10:24:17;101816.91;;;14.65;100.00
69306;BME280;56427;51.580;4.656;2022-10-31T10:29:38;101819.69;;;14.73;100.00
69306;BME280;56427;51.580;4.656;2022-10-31T10:32:12;101803.88;;;14.75;100.00
69306;BME280;56427;51.580;4.656;2022-10-31T10:34:50;101801.34;;;14.63;100.00
69306;BME280;56427;51.580;4.656;2022-10-31T10:37:25;101793.63;;;14.31;100.00
69306;BME280;56427;51.580;4.656;2022-10-31T10:39:56;101799.41;;;14.13;100.00
69306;BME280;56427;51.580;4.656;2022-10-31T10:42:26;101798.31;;;14.16;100.00
69306;BME280;56427;51.580;4.656;2022-10-31T10:45:16;101805.63;;;14.22;100.00
69306;BME280;56427;51.580;4.656;2022-10-31T10:48:15;101810.47;;;14.27;100.00
69306;BME280;56427;51.580;4.656;2022-10-31T10:50:46;101802.97;;;14.33;100.00
69306;BME280;56427;51.580;4.656;2022-10-31T10:53:23;101795.00;;;14.35;100.00
69306;BME280;56427;51.580;4.656;2022-10-31T10:58:36;101786.47;;;14.33;100.00
69306;BME280;56427;51.580;4.656;2022-10-31T11:01:11;101782.63;;;14.37;100.00
69306;BME280;56427;51.580;4.656;2022-10-31T11:03:37;101787.59;;;14.40;100.00
69306;BME280;56427;51.580;4.656;2022-10-31T11:06:02;101770.00;;;14.63;100.00
69306;BME280;56427;51.580;4.656;2022-10-31T11:08:30;101760.91;;;14.88;100.00
69306;BME280;56427;51.580;4.656;2022-10-31T11:11:03;101753.47;;;14.94;100.00
69306;BME280;56427;51.580;4.656;2022-10-31T11:13:30;101758.88;;;15.02;100.00
69306;BME280;56427;51.580;4.656;2022-10-31T11:16:06;101750.16;;;14.91;100.00
69306;BME280;56427;51.580;4.656;2022-10-31T11:18:36;101745.78;;;15.02;100.00
69306;BME280;56427;51.580;4.656;2022-10-31T11:21:03;101747.03;;;15.07;100.00
69306;BME280;56427;51.580;4.656;2022-10-31T11:23:30;101724.44;;;14.87;100.00
69306;BME280;56427;51.580;4.656;2022-10-31T11:26:04;101725.72;;;15.12;100.00
69306;BME280;56427;51.580;4.656;2022-10-31T11:28:31;101712.47;;;14.94;100.00
69306;BME280;56427;51.580;4.656;2022-10-31T11:31:07;101706.16;;;15.16;100.00
69306;BME280;56427;51.580;4.656;2022-10-31T11:33:55;101691.59;;;15.43;100.00
69306;BME280;56427;51.580;4.656;2022-10-31T11:36:29;101671.91;;;15.49;100.00
69306;BME280;56427;51.580;4.656;2022-10-31T11:38:55;101672.69;;;15.59;100.00
69306;BME280;56427;51.580;4.656;2022-10-31T11:41:29;101668.59;;;15.56;100.00
69306;BME280;56427;51.580;4.656;2022-10-31T11:44:00;101677.28;;;15.37;100.00
69306;BME280;56427;51.580;4.656;2022-10-31T11:48:57;101662.09;;;15.80;100.00
69306;BME280;56427;51.580;4.656;2022-10-31T11:51:31;101661.38;;;15.97;100.00
69306;BME280;56427;51.580;4.656;2022-10-31T11:53:59;101654.78;;;16.21;100.00
69306;BME280;56427;51.580;4.656;2022-10-31T11:56:27;101654.34;;;16.26;100.00
69306;BME280;56427;51.580;4.656;2022-10-31T11:58:59;101648.00;;;16.00;100.00
69306;BME280;56427;51.580;4.656;2022-10-31T12:01:28;101640.31;;;15.89;100.00
69306;BME280;56427;51.580;4.656;2022-10-31T12:04:12;101622.41;;;15.85;100.00
69306;BME280;56427;51.580;4.656;2022-10-31T12:06:40;101622.00;;;15.89;100.00
69306;BME280;56427;51.580;4.656;2022-10-31T12:09:28;101624.63;;;15.70;100.00
69306;BME280;56427;51.580;4.656;2022-10-31T12:12:11;101615.88;;;15.51;100.00
69306;BME280;56427;51.580;4.656;2022-10-31T12:17:39;101612.00;;;15.45;100.00
69306;BME280;56427;51.580;4.656;2022-10-31T12:23:31;101589.25;;;15.56;100.00
69306;BME280;56427;51.580;4.656;2022-10-31T12:28:53;101573.16;;;15.51;100.00
69306;BME280;56427;51.580;4.656;2022-10-31T12:31:26;101579.16;;;15.23;100.00
69306;BME280;56427;51.580;4.656;2022-10-31T12:37:03;101541.44;;;15.26;100.00
69306;BME280;56427;51.580;4.656;2022-10-31T12:42:17;101525.47;;;15.29;100.00
69306;BME280;56427;51.580;4.656;2022-10-31T12:45:11;101520.66;;;15.24;100.00
69306;BME280;56427;51.580;4.656;2022-10-31T12:50:35;101517.28;;;15.52;100.00
69306;BME280;56427;51.580;4.656;2022-10-31T12:58:32;101498.25;;;15.59;100.00
69306;BME280;56427;51.580;4.656;2022-10-31T13:01:23;101485.56;;;15.64;100.00
69306;BME280;56427;51.580;4.656;2022-10-31T13:04:11;101486.84;;;15.88;100.00
69306;BME280;56427;51.580;4.656;2022-10-31T13:06:42;101476.44;;;15.96;100.00
69306;BME280;56427;51.580;4.656;2022-10-31T13:09:11;101476.78;;;16.11;100.00
69306;BME280;56427;51.580;4.656;2022-10-31T13:12:12;101466.22;;;16.21;100.00
69306;BME280;56427;51.580;4.656;2022-10-31T13:14:46;101460.84;;;16.05;100.00
69306;BME280;56427;51.580;4.656;2022-10-31T13:17:39;101455.69;;;16.31;100.00
69306;BME280;56427;51.580;4.656;2022-10-31T13:20:28;101445.91;;;16.59;100.00
69306;BME280;56427;51.580;4.656;2022-10-31T13:23:02;101433.63;;;16.33;100.00
69306;BME280;56427;51.580;4.656;2022-10-31T13:25:33;101440.25;;;16.28;100.00
69306;BME280;56427;51.580;4.656;2022-10-31T13:28:05;101426.06;;;16.30;100.00
69306;BME280;56427;51.580;4.656;2022-10-31T13:30:40;101421.78;;;15.93;100.00
69306;BME280;56427;51.580;4.656;2022-10-31T13:33:14;101421.72;;;16.03;100.00
69306;BME280;56427;51.580;4.656;2022-10-31T13:35:50;101418.19;;;16.12;100.00
69306;BME280;56427;51.580;4.656;2022-10-31T13:38:32;101413.13;;;16.11;100.00
69306;BME280;56427;51.580;4.656;2022-10-31T13:41:18;101415.00;;;16.18;100.00
69306;BME280;56427;51.580;4.656;2022-10-31T13:44:18;101404.53;;;16.00;100.00
69306;BME280;56427;51.580;4.656;2022-10-31T13:46:44;101403.38;;;16.03;100.00
69306;BME280;56427;51.580;4.656;2022-10-31T13:51:50;101396.88;;;16.25;100.00
69306;BME280;56427;51.580;4.656;2022-10-31T13:54:39;101388.19;;;16.25;100.00
69306;BME280;56427;51.580;4.656;2022-10-31T13:57:28;101383.91;;;16.42;100.00
69306;BME280;56427;51.580;4.656;2022-10-31T13:59:57;101375.84;;;16.35;100.00
69306;BME280;56427;51.580;4.656;2022-10-31T14:02:29;101375.28;;;16.49;100.00
69306;BME280;56427;51.580;4.656;2022-10-31T14:05:01;101364.47;;;16.26;100.00
69306;BME280;56427;51.580;4.656;2022-10-31T14:07:29;101356.84;;;16.15;100.00
69306;BME280;56427;51.580;4.656;2022-10-31T14:10:03;101355.78;;;16.26;100.00